createdAt,value
2019-04-10T00:00:35.085Z,91.60
2019-04-10T00:03:24.018Z,91.60
2019-04-10T00:05:50.018Z,91.70
2019-04-10T00:08:26.211Z,91.90
2019-04-10T00:11:02.683Z,91.70
2019-04-10T00:13:32.243Z,91.70
2019-04-10T00:16:08.342Z,91.90
2019-04-10T00:18:50.951Z,91.70
2019-04-10T00:21:26.460Z,91.70
2019-04-10T00:23:56.039Z,91.70
2019-04-10T00:26:32.037Z,91.80
2019-04-10T00:29:07.952Z,91.90
2019-04-10T00:31:50.813Z,92.00
2019-04-10T00:34:21.214Z,92.10
2019-04-10T00:36:57.559Z,92.20
2019-04-10T00:39:40.685Z,92.30
2019-04-10T00:42:23.876Z,92.30
2019-04-10T00:44:54.211Z,92.40
2019-04-10T00:47:30.944Z,92.50
2019-04-10T00:50:00.493Z,92.50
2019-04-10T00:52:30.394Z,92.50
2019-04-10T00:55:06.473Z,92.40
2019-04-10T00:57:35.924Z,92.50
2019-04-10T01:00:08.561Z,92.60
2019-04-10T01:02:44.972Z,92.50
2019-04-10T01:05:21.067Z,92.40
2019-04-10T01:07:57.497Z,92.60
2019-04-10T01:10:28.409Z,92.70
2019-04-10T01:13:04.909Z,92.80
2019-04-10T01:15:34.568Z,92.70
2019-04-10T01:18:10.977Z,92.50
2019-04-10T01:20:40.512Z,92.60
2019-04-10T01:23:16.330Z,92.40
2019-04-10T01:25:52.969Z,92.40
2019-04-10T01:28:28.996Z,92.50
2019-04-10T01:30:59.104Z,92.70
2019-04-10T01:33:35.119Z,92.70
2019-04-10T01:36:11.029Z,92.80
2019-04-10T01:38:47.372Z,92.70
2019-04-10T01:41:23.816Z,92.80
2019-04-10T01:43:59.537Z,93.00
2019-04-10T01:46:29.052Z,92.90
2019-04-10T01:49:05.271Z,92.90
2019-04-10T01:51:35.139Z,92.90
2019-04-10T01:54:04.875Z,92.90
2019-04-10T01:56:41.867Z,92.90
2019-04-10T01:59:11.838Z,92.90
2019-04-10T02:01:50.468Z,92.90
2019-04-10T02:04:20.025Z,92.90
2019-04-10T02:06:55.950Z,92.80
2019-04-10T02:09:32.571Z,92.80
2019-04-10T02:12:02.200Z,92.80
2019-04-10T02:14:38.694Z,92.80
2019-04-10T02:17:15.038Z,93.00
2019-04-10T02:19:44.552Z,93.00
2019-04-10T02:22:20.402Z,93.00
2019-04-10T02:24:56.064Z,93.00
2019-04-10T02:27:26.621Z,93.00
2019-04-10T02:30:10.304Z,93.10
2019-04-10T02:32:43.549Z,93.10
2019-04-10T02:35:24.783Z,93.20
2019-04-10T02:37:56.112Z,93.20
2019-04-10T02:40:33.191Z,93.30
2019-04-10T02:43:03.337Z,93.20
2019-04-10T02:45:40.360Z,93.40
2019-04-10T02:48:12.167Z,93.40
2019-04-10T02:50:49.295Z,93.40
2019-04-10T02:53:19.539Z,93.40
2019-04-10T02:55:49.446Z,93.40
2019-04-10T02:58:26.515Z,93.50
2019-04-10T03:01:03.175Z,93.40
2019-04-10T03:03:34.234Z,93.40
2019-04-10T03:06:11.549Z,93.40
2019-04-10T03:09:03.429Z,93.40
2019-04-10T03:11:21.756Z,93.60
2019-04-10T03:13:59.283Z,93.60
2019-04-10T03:16:29.162Z,93.60
2019-04-10T03:19:05.397Z,93.60
2019-04-10T03:21:41.229Z,93.80
2019-04-10T03:24:23.613Z,93.80
2019-04-10T03:26:59.625Z,93.80
2019-04-10T03:29:35.883Z,93.80
2019-04-10T03:32:38.844Z,93.60
2019-04-10T03:35:30.449Z,93.60
2019-04-10T03:38:07.872Z,93.80
2019-04-10T03:40:37.633Z,93.90
2019-04-10T03:43:14.057Z,93.80
2019-04-10T03:45:44.482Z,93.80
2019-04-10T03:48:13.990Z,93.80
2019-04-10T03:50:50.144Z,93.80
2019-04-10T03:53:20.289Z,93.80
2019-04-10T03:55:57.118Z,93.80
2019-04-10T03:58:27.305Z,93.90
2019-04-10T04:01:04.729Z,93.80
2019-04-10T04:03:40.820Z,93.80
2019-04-10T04:06:17.616Z,93.70
2019-04-10T04:08:47.971Z,93.90
2019-04-10T04:11:24.633Z,93.90
2019-04-10T04:13:54.223Z,93.80
2019-04-10T04:16:31.066Z,93.70
2019-04-10T04:19:07.933Z,93.80
2019-04-10T04:21:37.420Z,93.70
2019-04-10T04:24:13.599Z,93.90
2019-04-10T04:26:43.591Z,93.70
2019-04-10T04:29:14.310Z,93.80
2019-04-10T04:31:50.746Z,93.70
2019-04-10T04:34:34.627Z,93.60
2019-04-10T04:37:16.613Z,93.60
2019-04-10T04:39:52.526Z,93.70
2019-04-10T04:42:22.360Z,93.60
2019-04-10T04:44:52.119Z,93.60
2019-04-10T04:47:35.647Z,93.50
2019-04-10T04:50:05.609Z,93.40
2019-04-10T04:52:42.039Z,93.30
2019-04-10T04:55:17.747Z,93.10
2019-04-10T04:57:54.112Z,93.00
2019-04-10T05:00:23.688Z,93.00
2019-04-10T05:02:53.689Z,92.90
2019-04-10T05:05:29.390Z,93.00
2019-04-10T05:08:02.487Z,93.00
2019-04-10T05:10:37.799Z,93.10
2019-04-10T05:13:14.365Z,93.10
2019-04-10T05:15:44.943Z,93.10
2019-04-10T05:18:21.234Z,93.00
2019-04-10T05:20:51.057Z,93.00
2019-04-10T05:23:20.488Z,92.80
2019-04-10T05:25:58.987Z,92.60
2019-04-10T05:28:29.959Z,92.70
2019-04-10T05:31:06.798Z,92.70
2019-04-10T05:33:43.351Z,92.40
2019-04-10T05:36:19.627Z,92.30
2019-04-10T05:38:56.086Z,92.40
2019-04-10T05:41:33.573Z,92.60
2019-04-10T05:44:09.947Z,92.70
2019-04-10T05:46:39.467Z,92.50
2019-04-10T05:49:17.008Z,92.60
2019-04-10T05:51:53.489Z,92.40
2019-04-10T05:54:22.986Z,92.40
2019-04-10T05:56:54.685Z,92.30
2019-04-10T05:59:32.126Z,91.90
2019-04-10T06:02:01.741Z,91.80
2019-04-10T06:04:37.793Z,91.70
2019-04-10T06:07:14.304Z,91.70
2019-04-10T06:09:55.986Z,91.60
2019-04-10T06:12:22.337Z,91.60
2019-04-10T06:14:59.045Z,91.40
2019-04-10T06:17:28.766Z,91.40
2019-04-10T06:19:58.688Z,90.90
2019-04-10T06:22:34.851Z,91.20
2019-04-10T06:25:15.263Z,91.20
2019-04-10T06:27:50.482Z,91.00
2019-04-10T06:30:27.770Z,91.00
2019-04-10T06:33:04.175Z,91.10
2019-04-10T06:35:40.374Z,90.70
2019-04-10T06:38:16.919Z,90.50
2019-04-10T06:40:52.876Z,90.50
2019-04-10T06:43:23.646Z,90.00
2019-04-10T06:45:59.999Z,90.00
2019-04-10T06:48:29.450Z,89.30
2019-04-10T06:51:06.151Z,89.20
2019-04-10T06:53:42.625Z,89.60
2019-04-10T06:56:18.744Z,89.20
2019-04-10T06:58:48.357Z,88.90
2019-04-10T07:01:33.455Z,88.50
2019-04-10T07:04:02.129Z,87.60
2019-04-10T07:06:47.182Z,87.70
2019-04-10T07:09:18.174Z,87.50
2019-04-10T07:11:53.585Z,87.50
2019-04-10T07:14:26.805Z,87.40
2019-04-10T07:17:00.553Z,87.80
2019-04-10T07:19:34.429Z,87.70
2019-04-10T07:22:09.830Z,87.50
2019-04-10T07:24:56.427Z,88.60
2019-04-10T07:27:26.039Z,89.70
2019-04-10T07:30:01.837Z,90.40
2019-04-10T07:32:31.500Z,90.90
2019-04-10T07:35:18.399Z,91.10
2019-04-10T07:37:46.538Z,91.40
2019-04-10T07:40:16.431Z,92.10
2019-04-10T07:42:52.753Z,92.20
2019-04-10T07:45:29.179Z,92.30
2019-04-10T07:48:06.522Z,92.50
2019-04-10T07:50:37.109Z,92.50
2019-04-10T07:53:14.782Z,92.40
2019-04-10T07:56:02.250Z,92.30
2019-04-10T07:58:23.582Z,92.30
2019-04-10T08:00:53.375Z,92.40
2019-04-10T08:03:29.173Z,92.40
2019-04-10T08:05:58.677Z,92.30
2019-04-10T08:08:36.256Z,92.30
2019-04-10T08:11:07.047Z,92.60
2019-04-10T08:13:43.259Z,92.50
2019-04-10T08:16:14.859Z,92.10
2019-04-10T08:18:52.067Z,92.20
2019-04-10T08:21:21.880Z,92.10
2019-04-10T08:23:58.388Z,92.00
2019-04-10T08:26:28.209Z,91.60
2019-04-10T08:29:05.740Z,91.70
2019-04-10T08:31:35.311Z,92.10
2019-04-10T08:34:18.035Z,92.10
2019-04-10T08:36:56.491Z,92.30
2019-04-10T08:39:40.467Z,91.80
2019-04-10T08:42:03.650Z,91.90
2019-04-10T08:44:33.173Z,91.60
2019-04-10T08:47:09.367Z,91.90
2019-04-10T08:49:45.771Z,91.90
2019-04-10T08:52:16.545Z,91.70
2019-04-10T08:54:46.108Z,91.30
2019-04-10T08:57:22.734Z,91.60
2019-04-10T08:59:59.008Z,90.80
2019-04-10T09:02:35.911Z,90.50
2019-04-10T09:05:09.076Z,90.20
2019-04-10T09:07:45.052Z,89.80
2019-04-10T09:10:14.822Z,88.30
2019-04-10T09:12:51.642Z,87.50
2019-04-10T09:15:21.851Z,86.60
2019-04-10T09:17:58.104Z,84.50
2019-04-10T09:20:28.616Z,85.10
2019-04-10T09:23:36.288Z,85.70
2019-04-10T09:25:49.500Z,84.50
2019-04-10T09:28:19.204Z,84.50
2019-04-10T09:30:55.517Z,84.60
2019-04-10T09:33:28.288Z,83.90
2019-04-10T09:36:04.712Z,84.60
2019-04-10T09:38:47.353Z,83.80
2019-04-10T09:41:17.466Z,82.90
2019-04-10T09:43:53.969Z,81.70
2019-04-10T09:46:25.189Z,80.40
2019-04-10T09:49:07.522Z,79.20
2019-04-10T09:51:38.219Z,78.70
2019-04-10T09:54:15.462Z,78.20
2019-04-10T09:56:45.101Z,78.00
2019-04-10T09:59:14.615Z,78.90
2019-04-10T10:01:51.410Z,78.30
2019-04-10T10:04:29.133Z,77.60
2019-04-10T10:06:59.810Z,78.90
2019-04-10T10:09:30.604Z,79.00
2019-04-10T10:12:07.407Z,78.50
2019-04-10T10:14:37.967Z,79.60
2019-04-10T10:17:14.800Z,79.30
2019-04-10T10:19:44.439Z,80.10
2019-04-10T10:22:21.011Z,80.80
2019-04-10T10:24:51.009Z,82.30
2019-04-10T10:27:22.127Z,81.80
2019-04-10T10:29:58.125Z,81.50
2019-04-10T10:32:28.917Z,82.70
2019-04-10T10:34:58.890Z,82.60
2019-04-10T10:37:34.747Z,82.80
2019-04-10T10:40:19.616Z,82.10
2019-04-10T10:43:02.568Z,83.00
2019-04-10T10:45:32.205Z,84.50
2019-04-10T10:48:09.147Z,83.50
2019-04-10T10:50:39.529Z,84.10
2019-04-10T10:53:16.404Z,83.70
2019-04-10T10:55:46.000Z,82.80
2019-04-10T10:58:22.379Z,82.70
2019-04-10T11:00:59.823Z,81.10
2019-04-10T11:03:35.511Z,79.80
2019-04-10T11:06:05.258Z,78.60
2019-04-10T11:08:41.762Z,79.00
2019-04-10T11:11:18.057Z,77.50
2019-04-10T11:13:55.101Z,77.40
2019-04-10T11:16:24.893Z,78.40
2019-04-10T11:19:01.110Z,75.10
2019-04-10T11:21:38.958Z,76.50
2019-04-10T11:24:15.290Z,75.30
2019-04-10T11:26:46.256Z,75.30
2019-04-10T11:29:22.547Z,76.20
2019-04-10T11:31:59.920Z,75.50
2019-04-10T11:34:36.543Z,75.80
2019-04-10T11:37:23.410Z,76.10
2019-04-10T11:40:05.107Z,76.40
2019-04-10T11:42:42.907Z,75.90
2019-04-10T11:45:17.004Z,76.20
2019-04-10T11:47:53.518Z,75.70
2019-04-10T11:50:25.303Z,76.30
2019-04-10T11:53:02.279Z,76.80
2019-04-10T11:55:48.450Z,77.10
2019-04-10T11:58:17.880Z,77.00
2019-04-10T12:00:56.382Z,76.40
2019-04-10T12:03:26.990Z,76.40
2019-04-10T12:05:57.668Z,76.10
2019-04-10T12:08:55.316Z,76.30
2019-04-10T12:11:08.859Z,74.70
2019-04-10T12:13:43.254Z,75.80
2019-04-10T12:16:12.786Z,75.00
2019-04-10T12:18:42.579Z,73.30
2019-04-10T12:21:19.818Z,73.80
2019-04-10T12:23:55.608Z,74.20
2019-04-10T12:26:25.524Z,73.20
2019-04-10T12:29:02.554Z,73.70
2019-04-10T12:31:33.183Z,73.40
2019-04-10T12:34:03.320Z,73.80
2019-04-10T12:36:39.570Z,74.00
2019-04-10T12:39:22.985Z,74.50
2019-04-10T12:42:05.909Z,74.70
2019-04-10T12:44:35.971Z,75.10
2019-04-10T12:47:13.351Z,75.90
2019-04-10T12:49:49.919Z,76.90
2019-04-10T12:52:25.505Z,76.40
2019-04-10T12:55:01.950Z,76.10
2019-04-10T12:57:37.653Z,76.70
2019-04-10T13:00:11.864Z,75.80
2019-04-10T13:02:47.821Z,75.70
2019-04-10T13:05:17.360Z,75.80
2019-04-10T13:07:54.090Z,75.70
2019-04-10T13:10:23.554Z,75.30
2019-04-10T13:12:59.763Z,75.10
2019-04-10T13:15:29.741Z,75.00
2019-04-10T13:18:00.311Z,75.80
2019-04-10T13:20:37.838Z,74.80
2019-04-10T13:23:08.649Z,74.90
2019-04-10T13:25:38.617Z,75.30
2019-04-10T13:28:15.117Z,74.40
2019-04-10T13:30:51.566Z,74.00
2019-04-10T13:33:24.439Z,75.40
2019-04-10T13:35:55.341Z,76.10
2019-04-10T13:38:30.184Z,74.10
2019-04-10T13:41:10.316Z,73.40
2019-04-10T13:43:40.158Z,72.30
2019-04-10T13:46:17.126Z,71.90
2019-04-10T13:48:53.855Z,73.50
2019-04-10T13:51:23.510Z,73.00
2019-04-10T13:53:59.724Z,73.40
2019-04-10T13:56:29.252Z,74.10
2019-04-10T13:59:00.337Z,74.40
2019-04-10T14:01:38.006Z,74.40
2019-04-10T14:04:07.578Z,74.40
2019-04-10T14:06:44.245Z,76.00
2019-04-10T14:09:34.407Z,76.20
2019-04-10T14:11:59.672Z,76.60
2019-04-10T14:14:37.053Z,75.80
2019-04-10T14:17:13.489Z,75.30
2019-04-10T14:19:49.827Z,75.20
2019-04-10T14:22:26.086Z,75.10
2019-04-10T14:24:55.712Z,76.40
2019-04-10T14:27:33.303Z,75.70
2019-04-10T14:30:03.187Z,76.20
2019-04-10T14:32:43.684Z,76.60
2019-04-10T14:35:13.453Z,76.10
2019-04-10T14:37:43.383Z,76.40
2019-04-10T14:40:33.511Z,76.50
2019-04-10T14:43:09.659Z,76.70
2019-04-10T14:45:45.858Z,77.10
2019-04-10T14:48:16.119Z,77.70
2019-04-10T14:50:52.228Z,78.50
2019-04-10T14:53:22.723Z,78.60
2019-04-10T14:55:59.871Z,78.50
2019-04-10T14:58:36.944Z,78.20
2019-04-10T15:01:08.351Z,77.90
2019-04-10T15:03:45.357Z,79.10
2019-04-10T15:06:22.954Z,79.20
2019-04-10T15:08:55.600Z,79.30
2019-04-10T15:11:32.974Z,79.70
2019-04-10T15:14:12.981Z,79.40
2019-04-10T15:16:55.694Z,81.00
2019-04-10T15:19:22.778Z,80.80
2019-04-10T15:21:59.097Z,80.90
2019-04-10T15:24:35.951Z,82.10
2019-04-10T15:27:06.902Z,82.60
2019-04-10T15:29:42.965Z,81.80
2019-04-10T15:32:20.231Z,82.60
2019-04-10T15:34:50.001Z,83.60
2019-04-10T15:37:26.129Z,84.00
2019-04-10T15:39:56.068Z,84.20
2019-04-10T15:42:40.624Z,84.60
2019-04-10T15:45:17.636Z,86.00
2019-04-10T15:47:52.640Z,86.10
2019-04-10T15:50:18.999Z,85.40
2019-04-10T15:52:55.843Z,85.60
2019-04-10T15:55:32.300Z,86.10
2019-04-10T15:58:08.790Z,85.00
2019-04-10T16:00:45.583Z,85.50
2019-04-10T16:03:22.287Z,85.30
2019-04-10T16:05:58.244Z,85.00
2019-04-10T16:08:28.385Z,84.90
2019-04-10T16:11:09.747Z,84.50
2019-04-10T16:13:41.091Z,85.00
2019-04-10T16:16:12.423Z,85.50
2019-04-10T16:18:49.222Z,85.90
2019-04-10T16:21:26.810Z,86.30
2019-04-10T16:24:00.873Z,86.70
2019-04-10T16:26:43.347Z,87.30
2019-04-10T16:29:20.295Z,87.70
2019-04-10T16:31:50.340Z,87.60
2019-04-10T16:34:26.920Z,88.30
2019-04-10T16:36:57.625Z,87.90
2019-04-10T16:39:27.873Z,88.10
2019-04-10T16:42:04.356Z,88.50
2019-04-10T16:44:47.441Z,88.70
2019-04-10T16:47:23.951Z,89.30
2019-04-10T16:49:59.865Z,90.20
2019-04-10T16:52:29.675Z,90.50
2019-04-10T16:54:59.777Z,90.40
2019-04-10T16:57:36.645Z,90.90
2019-04-10T17:00:07.559Z,90.80
2019-04-10T17:02:44.446Z,90.90
2019-04-10T17:05:14.481Z,91.10
2019-04-10T17:07:51.677Z,91.00
2019-04-10T17:10:24.469Z,91.10
2019-04-10T17:13:00.469Z,91.00
2019-04-10T17:15:30.276Z,91.00
2019-04-10T17:18:06.743Z,91.10
2019-04-10T17:20:36.333Z,91.00
2019-04-10T17:23:14.392Z,91.10
2019-04-10T17:25:50.969Z,91.70
2019-04-10T17:28:28.339Z,91.60
2019-04-10T17:31:07.335Z,91.70
2019-04-10T17:33:36.413Z,91.70
2019-04-10T17:36:07.610Z,91.70
2019-04-10T17:38:51.015Z,91.70
2019-04-10T17:41:33.498Z,92.10
2019-04-10T17:44:09.705Z,92.00
2019-04-10T17:46:52.264Z,91.90
2019-04-10T17:49:21.920Z,92.10
2019-04-10T17:51:58.733Z,92.10
2019-04-10T17:54:29.834Z,92.30
2019-04-10T17:57:00.312Z,92.20
2019-04-10T17:59:36.751Z,92.10
2019-04-10T18:02:17.793Z,92.00
2019-04-10T18:04:48.315Z,91.90
2019-04-10T18:07:24.897Z,92.20
2019-04-10T18:09:54.550Z,92.10
2019-04-10T18:12:31.922Z,92.10
2019-04-10T18:15:02.087Z,92.20
2019-04-10T18:17:38.946Z,92.30
2019-04-10T18:20:15.741Z,92.00
2019-04-10T18:22:53.327Z,92.00
2019-04-10T18:25:22.993Z,92.20
2019-04-10T18:28:05.763Z,92.20
2019-04-10T18:30:36.010Z,92.40
2019-04-10T18:33:14.178Z,92.60
2019-04-10T18:35:44.234Z,92.50
2019-04-10T18:38:21.611Z,92.70
2019-04-10T18:41:02.030Z,92.80
2019-04-10T18:43:36.148Z,92.70
2019-04-10T18:46:20.791Z,92.60
2019-04-10T18:48:56.872Z,92.50
2019-04-10T18:51:26.670Z,93.40
2019-04-10T18:54:03.833Z,93.90
2019-04-10T18:56:40.958Z,94.40
2019-04-10T18:59:18.751Z,94.60
2019-04-10T19:01:53.606Z,94.90
2019-04-10T19:04:32.723Z,94.90
2019-04-10T19:07:09.282Z,94.90
2019-04-10T19:09:46.884Z,95.30
2019-04-10T19:12:24.410Z,95.40
2019-04-10T19:14:54.271Z,95.90
2019-04-10T19:17:31.464Z,96.20
2019-04-10T19:20:02.206Z,96.60
2019-04-10T19:22:32.439Z,96.60
2019-04-10T19:25:08.745Z,96.70
2019-04-10T19:27:46.539Z,96.60
2019-04-10T19:30:21.647Z,96.30
2019-04-10T19:32:57.480Z,96.80
2019-04-10T19:35:33.260Z,96.60
2019-04-10T19:38:09.785Z,96.30
2019-04-10T19:40:40.382Z,96.10
2019-04-10T19:43:17.741Z,96.00
2019-04-10T19:46:08.175Z,95.80
2019-04-10T19:48:52.328Z,95.50
2019-04-10T19:51:30.075Z,95.70
2019-04-10T19:54:13.612Z,95.70
2019-04-10T19:56:43.250Z,95.80
2019-04-10T19:59:20.841Z,95.80
2019-04-10T20:01:50.682Z,95.90
2019-04-10T20:04:26.937Z,95.90
2019-04-10T20:07:02.843Z,95.80
2019-04-10T20:09:32.689Z,95.90
2019-04-10T20:12:02.530Z,95.90
2019-04-10T20:14:39.113Z,95.90
2019-04-10T20:17:15.867Z,96.00
2019-04-10T20:19:46.653Z,96.00
2019-04-10T20:22:23.471Z,95.90
2019-04-10T20:24:59.865Z,96.20
2019-04-10T20:27:29.530Z,96.30
2019-04-10T20:29:59.399Z,96.40
2019-04-10T20:32:36.448Z,96.50
2019-04-10T20:35:07.781Z,97.00
2019-04-10T20:37:38.596Z,96.70
2019-04-10T20:40:15.932Z,97.00
2019-04-10T20:42:51.578Z,97.00
2019-04-10T20:45:34.276Z,97.00
2019-04-10T20:48:17.140Z,97.00
2019-04-10T20:50:52.585Z,97.00
2019-04-10T20:53:28.701Z,97.30
2019-04-10T20:55:58.287Z,97.60
2019-04-10T20:58:36.222Z,97.60
2019-04-10T21:01:12.471Z,97.60
2019-04-10T21:03:42.557Z,97.70
2019-04-10T21:06:13.326Z,97.80
2019-04-10T21:08:50.322Z,97.90
2019-04-10T21:11:20.371Z,98.00
2019-04-10T21:13:56.745Z,97.90
2019-04-10T21:16:27.301Z,97.90
2019-04-10T21:19:04.537Z,97.70
2019-04-10T21:21:34.889Z,97.50
2019-04-10T21:24:11.414Z,97.60
2019-04-10T21:26:41.061Z,97.60
2019-04-10T21:29:18.867Z,97.60
2019-04-10T21:31:53.040Z,97.60
2019-04-10T21:34:37.069Z,97.20
2019-04-10T21:37:06.659Z,97.20
2019-04-10T21:39:43.667Z,97.20
2019-04-10T21:42:21.047Z,97.10
2019-04-10T21:44:57.930Z,97.00
2019-04-10T21:47:34.000Z,96.90
2019-04-10T21:50:18.539Z,96.90
2019-04-10T21:52:49.681Z,96.70
2019-04-10T21:55:26.845Z,96.90
2019-04-10T21:57:57.571Z,96.70
2019-04-10T22:00:51.275Z,96.90
2019-04-10T22:03:27.770Z,96.80
2019-04-10T22:06:21.820Z,96.70
2019-04-10T22:09:15.308Z,96.60
2019-04-10T22:11:47.618Z,96.50
2019-04-10T22:14:17.294Z,96.50
2019-04-10T22:16:54.673Z,96.50
2019-04-10T22:19:24.402Z,96.50
2019-04-10T22:22:00.515Z,96.60
2019-04-10T22:24:30.110Z,97.00
2019-04-10T22:27:07.064Z,96.90
2019-04-10T22:29:43.150Z,97.10
2019-04-10T22:32:18.942Z,97.00
2019-04-10T22:34:48.534Z,97.30
2019-04-10T22:37:25.775Z,97.70
2019-04-10T22:39:56.581Z,97.90
2019-04-10T22:42:41.108Z,97.80
2019-04-10T22:45:27.391Z,97.80
2019-04-10T22:48:04.787Z,97.80
2019-04-10T22:50:47.542Z,97.90
2019-04-10T22:53:23.945Z,97.70
2019-04-10T22:55:53.543Z,98.00
2019-04-10T22:58:29.914Z,97.80
2019-04-10T23:01:06.878Z,97.90
2019-04-10T23:03:43.199Z,98.00
2019-04-10T23:06:19.453Z,98.20
2019-04-10T23:08:49.654Z,97.90
2019-04-10T23:11:31.722Z,97.80
2019-04-10T23:13:58.513Z,97.80
2019-04-10T23:16:35.769Z,98.00
2019-04-10T23:19:05.737Z,98.00
2019-04-10T23:21:42.829Z,98.10
2019-04-10T23:24:12.393Z,97.90
2019-04-10T23:26:49.286Z,97.90
2019-04-10T23:29:20.065Z,97.80
2019-04-10T23:31:56.276Z,97.90
2019-04-10T23:34:25.762Z,97.90
2019-04-10T23:37:02.519Z,97.80
2019-04-10T23:39:38.720Z,97.90
2019-04-10T23:42:14.935Z,97.90
2019-04-10T23:44:51.312Z,97.90
2019-04-10T23:47:28.427Z,97.80
2019-04-10T23:50:10.779Z,97.80
2019-04-10T23:52:46.431Z,97.90
2019-04-10T23:55:30.122Z,98.00
2019-04-10T23:58:07.693Z,98.00
